Latest Coastal Weather Observations for St Kilda Harbour RMYS

IDV60701

Issued at 7:21 pm EST Saturday 21 September 2019 (issued every 10 minutes, with the page automatically refreshed every 10 minutes)

About coastal observations | Map of coastal stations | Coastal observations for VIC | Marine services | Other Formats
Station Details ID: 086220 Name: ST KILDA HARBOUR - RMYS Lat: -37.86 Lon: 144.96 Height: 6.4 m
Data from the previous 72 hours. | See also: Recent months at St Kilda Harbour RMYS
Date/Time
EST
Wind Sea
Height
m
Swell Vis
km
Cloud Weather Temp
°C
Press
hPa
Rain since
9am
mm
Dir  Spd
kts
Gust
kts
Height
m
Period
s
Dir
21/07:00pm WSW 12 16 - - - - - - - - - -
21/06:30pm WSW 16 19 - - - - - - - - - -
21/06:00pm WSW 16 19 - - - - - - - - - -
21/05:30pm WSW 19 23 - - - - - - - - - -
21/05:24pm WSW 20 24 - - - - - - - - - -
21/05:00pm WNW 10 14 - - - - - - - - - -
21/04:30pm W 16 20 - - - - - - - - - -
21/04:00pm W 28 36 - - - - - - - - - -
21/03:36pm WNW 24 33 - - - - - - - - - -
21/03:30pm NW 22 33 - - - - - - - - - -
21/03:08pm NNW 22 29 - - - - - - - - - -
21/03:00pm NNW 22 30 - - - - - - - - - -
21/02:30pm NNW 21 33 - - - - - - - - - -
21/02:29pm NNW 20 33 - - - - - - - - - -
21/02:00pm NNW 22 30 - - - - - - - - - -
21/01:30pm NW 25 34 - - - - - - - - - -
21/01:02pm NW 25 36 - - - - - - - - - -
21/01:00pm NW 24 34 - - - - - - - - - -
21/12:31pm NNW 19 29 - - - - - - - - - -
21/12:30pm NNW 20 29 - - - - - - - - - -
21/12:26pm NNW 19 29 - - - - - - - - - -
21/12:04pm NW 23 34 - - - - - - - - - -
21/12:00pm WNW 27 40 - - - - - - - - - -
21/11:55am WNW 32 42 - - - - - - - - - -
21/11:44am NW 28 41 - - - - - - - - - -
21/11:30am WNW 11 33 - - - - - - - - - -
21/11:28am W 6 30 - - - - - - - - - -
21/11:00am ESE 2 3 - - - - - - - - - -
21/10:30am S 3 4 - - - - - - - - - -
21/10:00am SSE 3 4 - - - - - - - - - -
21/09:30am SSE 3 5 - - - - - - - - - -
21/09:00am S 6 9 - - - - - - - - - -
21/08:30am SW 6 10 - - - - - - - - - -
21/08:00am SW 10 14 - - - - - - - - - -
21/07:30am NW 14 22 - - - - - - - - - -
21/07:01am N 17 28 - - - - - - - - - -
21/07:00am N 18 25 - - - - - - - - - -
21/06:41am NNW 18 28 - - - - - - - - - -
21/06:30am N 17 25 - - - - - - - - - -
21/06:00am N 15 25 - - - - - - - - - -
21/05:36am NNE 15 26 - - - - - - - - - -
21/05:30am N 15 22 - - - - - - - - - -
21/05:00am NNE 13 20 - - - - - - - - - -
21/04:30am NNE 13 18 - - - - - - - - - -
21/04:00am NNE 14 21 - - - - - - - - - -
21/03:30am NNE 10 18 - - - - - - - - - -
21/03:00am NNE 12 20 - - - - - - - - - -
21/02:30am NNE 13 18 - - - - - - - - - -
21/02:00am NNE 12 19 - - - - - - - - - -
21/01:30am NNE 16 22 - - - - - - - - - -
21/01:00am NNE 15 23 - - - - - - - - - -
21/12:32am NNE 18 28 - - - - - - - - - -
21/12:30am NNE 19 25 - - - - - - - - - -
21/12:04am NNE 16 27 - - - - - - - - - -
21/12:00am NNE 15 23 - - - - - - - - - -
 
Date/Time
EST
Wind Sea
Height
m
Swell Vis
km
Cloud Weather Temp
°C
Press
hPa
Rain since
9am
mm
Dir  Spd
kts
Gust
kts
Height
m
Period
s
Dir
20/11:30pm NNE 10 17 - - - - - - - - - -
20/11:00pm NNE 10 18 - - - - - - - - - -
20/10:30pm NNE 11 19 - - - - - - - - - -
20/10:00pm NE 12 20 - - - - - - - - - -
20/09:30pm NNE 10 16 - - - - - - - - - -
20/09:00pm NE 8 15 - - - - - - - - - -
20/08:30pm NE 10 14 - - - - - - - - - -
20/08:00pm NE 9 13 - - - - - - - - - -
20/07:30pm NE 9 14 - - - - - - - - - -
20/07:00pm NE 12 19 - - - - - - - - - -
20/06:30pm NNE 12 17 - - - - - - - - - -
20/06:00pm NE 11 17 - - - - - - - - - -
20/05:30pm NNE 10 15 - - - - - - - - - -
20/05:00pm NNE 12 17 - - - - - - - - - -
20/04:30pm NNE 15 23 - - - - - - - - - -
20/04:05pm N 17 27 - - - - - - - - - -
20/04:00pm N 18 27 - - - - - - - - - -
20/03:30pm N 14 22 - - - - - - - - - -
20/03:01pm N 16 26 - - - - - - - - - -
20/03:00pm N 17 26 - - - - - - - - - -
20/02:30pm N 16 25 - - - - - - - - - -
20/02:00pm N 14 22 - - - - - - - - - -
20/01:30pm N 17 25 - - - - - - - - - -
20/01:00pm N 20 27 - - - - - - - - - -
20/12:30pm N 21 31 - - - - - - - - - -
20/12:04pm N 18 29 - - - - - - - - - -
20/12:00pm N 18 25 - - - - - - - - - -
20/11:30am N 16 29 - - - - - - - - - -
20/11:00am N 17 27 - - - - - - - - - -
20/10:52am N 15 25 - - - - - - - - - -
20/10:30am N 18 25 - - - - - - - - - -
20/10:00am NNW 16 24 - - - - - - - - - -
20/09:30am NNE 11 19 - - - - - - - - - -
20/09:00am NNE 15 23 - - - - - - - - - -
20/08:36am N 15 25 - - - - - - - - - -
20/08:30am N 13 20 - - - - - - - - - -
20/08:15am N 16 26 - - - - - - - - - -
20/08:00am NNE 13 20 - - - - - - - - - -
20/07:30am N 11 17 - - - - - - - - - -
20/07:00am NNE 8 16 - - - - - - - - - -
20/06:30am NNE 14 22 - - - - - - - - - -
20/06:00am NNE 16 29 - - - - - - - - - -
20/05:30am N 19 29 - - - - - - - - - -
20/05:13am N 17 27 - - - - - - - - - -
20/05:00am N 18 27 - - - - - - - - - -
20/04:30am N 19 28 - - - - - - - - - -
20/04:25am NNE 17 27 - - - - - - - - - -
20/04:00am N 16 22 - - - - - - - - - -
20/03:30am NNE 16 25 - - - - - - - - - -
20/03:00am NNE 19 31 - - - - - - - - - -
20/02:35am NNE 21 31 - - - - - - - - - -
20/02:30am NNE 20 27 - - - - - - - - - -
20/02:06am NNE 15 26 - - - - - - - - - -
20/02:00am NNE 13 21 - - - - - - - - - -
20/01:30am NNE 18 29 - - - - - - - - - -
20/01:00am NNE 20 33 - - - - - - - - - -
20/12:30am NNE 20 31 - - - - - - - - - -
20/12:17am NNE 17 27 - - - - - - - - - -
20/12:00am NNE 18 26 - - - - - - - - - -
 
Date/Time
EST
Wind Sea
Height
m
Swell Vis
km
Cloud Weather Temp
°C
Press
hPa
Rain since
9am
mm
Dir  Spd
kts
Gust
kts
Height
m
Period
s
Dir
19/11:32pm NNE 19 29 - - - - - - - - - -
19/11:30pm NNE 20 29 - - - - - - - - - -
19/11:00pm NNE 19 30 - - - - - - - - - -
19/10:34pm NNE 19 30 - - - - - - - - - -
19/10:30pm NNE 19 28 - - - - - - - - - -
19/10:07pm NNE 17 27 - - - - - - - - - -
19/10:00pm NNE 18 26 - - - - - - - - - -
19/09:30pm NNE 19 29 - - - - - - - - - -
19/09:00pm NNE 23 34 - - - - - - - - - -
19/08:30pm NNE 22 33 - - - - - - - - - -
19/08:00pm NNE 19 31 - - - - - - - - - -
19/07:37pm NNE 16 28 - - - - - - - - - -
19/07:30pm NNE 14 22 - - - - - - - - - -
19/07:00pm NNE 11 19 - - - - - - - - - -
19/06:30pm NNE 11 20 - - - - - - - - - -
19/06:00pm NNE 16 24 - - - - - - - - - -
19/05:30pm N 17 27 - - - - - - - - - -
19/05:10pm N 15 25 - - - - - - - - - -
19/05:00pm N 17 26 - - - - - - - - - -
19/04:42pm NNE 17 28 - - - - - - - - - -
19/04:30pm N 17 25 - - - - - - - - - -
19/04:00pm N 17 24 - - - - - - - - - -
19/03:30pm N 20 31 - - - - - - - - - -
19/03:00pm N 18 26 - - - - - - - - - -
19/02:30pm N 20 30 - - - - - - - - - -
19/02:00pm N 22 32 - - - - - - - - - -
19/01:46pm N 17 28 - - - - - - - - - -
19/01:30pm N 20 27 - - - - - - - - - -
19/01:00pm N 21 34 - - - - - - - - - -
19/12:31pm N 21 32 - - - - - - - - - -
19/12:30pm N 21 30 - - - - - - - - - -
19/12:00pm N 16 27 - - - - - - - - - -
19/11:55am N 17 27 - - - - - - - - - -
19/11:30am N 19 27 - - - - - - - - - -
19/11:12am N 19 29 - - - - - - - - - -
19/11:00am N 19 28 - - - - - - - - - -
19/10:37am N 18 31 - - - - - - - - - -
19/10:30am N 19 27 - - - - - - - - - -
19/10:01am N 19 30 - - - - - - - - - -
19/10:00am N 20 30 - - - - - - - - - -
19/09:48am N 18 28 - - - - - - - - - -
19/09:39am NNE 13 25 - - - - - - - - - -
19/09:30am NNE 8 13 - - - - - - - - - -
19/09:00am NE 8 11 - - - - - - - - - -
19/08:30am NE 7 10 - - - - - - - - - -
19/08:00am NE 4 7 - - - - - - - - - -
19/07:30am NNE 4 6 - - - - - - - - - -
19/07:00am NE 3 5 - - - - - - - - - -
19/06:30am NNE 3 5 - - - - - - - - - -
19/06:00am NNE 5 8 - - - - - - - - - -
19/05:30am N 4 6 - - - - - - - - - -
19/05:00am N 4 6 - - - - - - - - - -
19/04:30am NNE 5 7 - - - - - - - - - -
19/04:00am NNE 6 8 - - - - - - - - - -
19/03:30am NNE 5 7 - - - - - - - - - -
19/03:00am NNE 5 7 - - - - - - - - - -
19/02:30am NNE 5 7 - - - - - - - - - -
19/02:00am NNE 8 11 - - - - - - - - - -
19/01:30am NNE 7 9 - - - - - - - - - -
19/01:00am NNE 7 10 - - - - - - - - - -
19/12:30am NNE 7 10 - - - - - - - - - -
19/12:00am NNE 6 8 - - - - - - - - - -
 
Date/Time
EST
Wind Sea
Height
m
Swell Vis
km
Cloud Weather Temp
°C
Press
hPa
Rain since
9am
mm
Dir  Spd
kts
Gust
kts
Height
m
Period
s
Dir
18/11:30pm NNE 7 8 - - - - - - - - - -
18/11:00pm NE 4 6 - - - - - - - - - -
18/10:30pm NNE 2 3 - - - - - - - - - -
18/10:00pm NNE 1 2 - - - - - - - - - -
18/09:30pm NE 2 4 - - - - - - - - - -
18/09:00pm E 5 8 - - - - - - - - - -
18/08:30pm E 6 9 - - - - - - - - - -
18/08:00pm ESE 6 8 - - - - - - - - - -
18/07:30pm SE 5 6 - - - - - - - - - -

Other formats

Comma delimited format used in spreadsheet applications
http://www.bom.gov.au/fwo/IDV60701/IDV60701.95864.axf

JavaScript Object Notation format (JSON) in row-major order
http://www.bom.gov.au/fwo/IDV60701/IDV60701.95864.json

Data quality

Most of these data are generated automatically and are frequently updated. Quality checks on data are not normally performed. It is possible for incorrect values to appear. Refer to information at About Latest Weather Observations and please check the disclaimer before using these data.